sensor_id;sensor_type;location;lat;lon;timestamp;P1;durP1;ratioP1;P2;durP2;ratioP2
5559;SDS011;2803;47.916;8.074;2023-06-26T00:00:28;7.50;;;5.33;;
5559;SDS011;2803;47.916;8.074;2023-06-26T00:02:54;7.73;;;5.53;;
5559;SDS011;2803;47.916;8.074;2023-06-26T00:05:21;10.10;;;5.40;;
5559;SDS011;2803;47.916;8.074;2023-06-26T00:07:48;7.97;;;5.63;;
5559;SDS011;2803;47.916;8.074;2023-06-26T00:10:15;6.93;;;4.57;;
5559;SDS011;2803;47.916;8.074;2023-06-26T00:12:42;7.87;;;5.53;;
5559;SDS011;2803;47.916;8.074;2023-06-26T00:15:10;9.43;;;5.50;;
5559;SDS011;2803;47.916;8.074;2023-06-26T00:17:37;11.37;;;5.27;;
5559;SDS011;2803;47.916;8.074;2023-06-26T00:20:05;7.07;;;5.57;;
5559;SDS011;2803;47.916;8.074;2023-06-26T00:22:33;8.97;;;5.13;;
5559;SDS011;2803;47.916;8.074;2023-06-26T00:24:59;6.73;;;5.20;;
5559;SDS011;2803;47.916;8.074;2023-06-26T00:27:28;7.07;;;5.03;;
5559;SDS011;2803;47.916;8.074;2023-06-26T00:29:55;11.67;;;6.30;;
5559;SDS011;2803;47.916;8.074;2023-06-26T00:32:23;11.00;;;5.80;;
5559;SDS011;2803;47.916;8.074;2023-06-26T00:34:50;8.27;;;5.70;;
5559;SDS011;2803;47.916;8.074;2023-06-26T00:37:17;7.20;;;4.50;;
5559;SDS011;2803;47.916;8.074;2023-06-26T00:39:44;9.57;;;5.97;;
5559;SDS011;2803;47.916;8.074;2023-06-26T00:42:10;8.53;;;6.03;;
5559;SDS011;2803;47.916;8.074;2023-06-26T00:44:37;8.50;;;4.90;;
5559;SDS011;2803;47.916;8.074;2023-06-26T00:47:04;8.00;;;5.50;;
5559;SDS011;2803;47.916;8.074;2023-06-26T00:49:32;8.20;;;5.40;;
5559;SDS011;2803;47.916;8.074;2023-06-26T00:51:59;8.73;;;5.77;;
5559;SDS011;2803;47.916;8.074;2023-06-26T00:54:26;6.60;;;5.10;;
5559;SDS011;2803;47.916;8.074;2023-06-26T00:56:53;8.37;;;5.50;;
5559;SDS011;2803;47.916;8.074;2023-06-26T00:59:19;6.90;;;5.43;;
5559;SDS011;2803;47.916;8.074;2023-06-26T01:01:46;17.13;;;5.90;;
5559;SDS011;2803;47.916;8.074;2023-06-26T01:04:13;8.37;;;5.87;;
5559;SDS011;2803;47.916;8.074;2023-06-26T01:06:44;8.40;;;5.10;;
5559;SDS011;2803;47.916;8.074;2023-06-26T01:09:14;8.93;;;4.90;;
5559;SDS011;2803;47.916;8.074;2023-06-26T01:11:42;7.20;;;5.30;;
5559;SDS011;2803;47.916;8.074;2023-06-26T01:14:09;8.97;;;5.63;;
5559;SDS011;2803;47.916;8.074;2023-06-26T01:16:36;10.00;;;6.50;;
5559;SDS011;2803;47.916;8.074;2023-06-26T01:19:04;9.33;;;5.80;;
5559;SDS011;2803;47.916;8.074;2023-06-26T01:21:36;8.77;;;5.30;;
5559;SDS011;2803;47.916;8.074;2023-06-26T01:24:12;7.90;;;5.40;;
5559;SDS011;2803;47.916;8.074;2023-06-26T01:26:46;8.27;;;5.50;;
5559;SDS011;2803;47.916;8.074;2023-06-26T01:29:16;8.40;;;5.63;;
5559;SDS011;2803;47.916;8.074;2023-06-26T01:31:44;9.60;;;6.17;;
5559;SDS011;2803;47.916;8.074;2023-06-26T01:34:14;8.77;;;6.27;;
5559;SDS011;2803;47.916;8.074;2023-06-26T01:36:41;18.13;;;6.10;;
5559;SDS011;2803;47.916;8.074;2023-06-26T01:39:08;7.67;;;5.90;;
5559;SDS011;2803;47.916;8.074;2023-06-26T01:41:35;8.20;;;6.27;;
5559;SDS011;2803;47.916;8.074;2023-06-26T01:44:07;11.00;;;6.57;;
5559;SDS011;2803;47.916;8.074;2023-06-26T01:46:46;7.70;;;5.57;;
5559;SDS011;2803;47.916;8.074;2023-06-26T01:49:21;8.40;;;5.63;;
5559;SDS011;2803;47.916;8.074;2023-06-26T01:51:53;13.93;;;5.87;;
5559;SDS011;2803;47.916;8.074;2023-06-26T01:54:24;7.57;;;5.93;;
5559;SDS011;2803;47.916;8.074;2023-06-26T01:56:55;9.57;;;6.20;;
5559;SDS011;2803;47.916;8.074;2023-06-26T01:59:24;8.57;;;6.33;;
5559;SDS011;2803;47.916;8.074;2023-06-26T02:01:54;10.07;;;7.03;;
5559;SDS011;2803;47.916;8.074;2023-06-26T02:04:21;9.30;;;6.50;;
5559;SDS011;2803;47.916;8.074;2023-06-26T02:06:47;11.73;;;6.37;;
5559;SDS011;2803;47.916;8.074;2023-06-26T02:09:14;7.93;;;5.80;;
5559;SDS011;2803;47.916;8.074;2023-06-26T02:11:41;9.57;;;6.07;;
5559;SDS011;2803;47.916;8.074;2023-06-26T02:14:07;9.70;;;6.57;;
5559;SDS011;2803;47.916;8.074;2023-06-26T02:16:37;8.17;;;6.07;;
5559;SDS011;2803;47.916;8.074;2023-06-26T02:19:04;9.57;;;6.10;;
5559;SDS011;2803;47.916;8.074;2023-06-26T02:21:31;13.07;;;6.40;;
5559;SDS011;2803;47.916;8.074;2023-06-26T02:23:58;7.43;;;5.67;;
5559;SDS011;2803;47.916;8.074;2023-06-26T02:26:24;9.80;;;5.50;;
5559;SDS011;2803;47.916;8.074;2023-06-26T02:28:52;9.87;;;5.70;;
5559;SDS011;2803;47.916;8.074;2023-06-26T02:31:19;10.20;;;5.90;;
5559;SDS011;2803;47.916;8.074;2023-06-26T02:33:47;9.50;;;6.37;;
5559;SDS011;2803;47.916;8.074;2023-06-26T02:36:14;9.13;;;6.60;;
5559;SDS011;2803;47.916;8.074;2023-06-26T02:38:41;6.90;;;5.07;;
5559;SDS011;2803;47.916;8.074;2023-06-26T02:41:08;7.27;;;5.73;;
5559;SDS011;2803;47.916;8.074;2023-06-26T02:43:34;7.40;;;4.70;;
5559;SDS011;2803;47.916;8.074;2023-06-26T02:46:01;10.73;;;6.37;;
5559;SDS011;2803;47.916;8.074;2023-06-26T02:48:27;8.43;;;5.67;;
5559;SDS011;2803;47.916;8.074;2023-06-26T02:50:55;8.73;;;5.80;;
5559;SDS011;2803;47.916;8.074;2023-06-26T02:53:22;10.40;;;6.60;;
5559;SDS011;2803;47.916;8.074;2023-06-26T02:55:49;19.73;;;6.50;;
5559;SDS011;2803;47.916;8.074;2023-06-26T02:58:16;8.57;;;5.73;;
5559;SDS011;2803;47.916;8.074;2023-06-26T03:00:42;7.80;;;5.50;;
5559;SDS011;2803;47.916;8.074;2023-06-26T03:03:09;8.77;;;5.83;;
5559;SDS011;2803;47.916;8.074;2023-06-26T03:05:37;8.40;;;5.67;;
5559;SDS011;2803;47.916;8.074;2023-06-26T03:08:05;11.20;;;6.50;;
5559;SDS011;2803;47.916;8.074;2023-06-26T03:10:32;9.00;;;5.87;;
5559;SDS011;2803;47.916;8.074;2023-06-26T03:12:59;7.03;;;5.37;;
5559;SDS011;2803;47.916;8.074;2023-06-26T03:15:26;13.30;;;5.77;;
5559;SDS011;2803;47.916;8.074;2023-06-26T03:17:52;9.43;;;5.73;;
5559;SDS011;2803;47.916;8.074;2023-06-26T03:20:19;7.93;;;5.53;;
5559;SDS011;2803;47.916;8.074;2023-06-26T03:22:45;11.70;;;6.10;;
5559;SDS011;2803;47.916;8.074;2023-06-26T03:25:13;8.33;;;6.13;;
5559;SDS011;2803;47.916;8.074;2023-06-26T03:27:40;8.23;;;5.67;;
5559;SDS011;2803;47.916;8.074;2023-06-26T03:30:07;9.27;;;5.50;;
5559;SDS011;2803;47.916;8.074;2023-06-26T03:32:34;11.90;;;6.60;;
5559;SDS011;2803;47.916;8.074;2023-06-26T03:35:01;8.00;;;5.73;;
5559;SDS011;2803;47.916;8.074;2023-06-26T03:37:29;6.87;;;5.10;;
5559;SDS011;2803;47.916;8.074;2023-06-26T03:39:55;6.47;;;5.00;;
5559;SDS011;2803;47.916;8.074;2023-06-26T03:42:23;7.37;;;5.33;;
5559;SDS011;2803;47.916;8.074;2023-06-26T03:44:50;8.27;;;5.93;;
5559;SDS011;2803;47.916;8.074;2023-06-26T03:47:16;8.13;;;5.67;;
5559;SDS011;2803;47.916;8.074;2023-06-26T03:49:43;7.83;;;5.63;;
5559;SDS011;2803;47.916;8.074;2023-06-26T03:52:10;7.00;;;5.23;;
5559;SDS011;2803;47.916;8.074;2023-06-26T03:54:36;8.27;;;5.30;;
5559;SDS011;2803;47.916;8.074;2023-06-26T03:57:03;8.57;;;5.23;;
5559;SDS011;2803;47.916;8.074;2023-06-26T03:59:31;8.03;;;5.80;;
5559;SDS011;2803;47.916;8.074;2023-06-26T04:01:58;8.97;;;5.00;;
5559;SDS011;2803;47.916;8.074;2023-06-26T04:04:25;6.30;;;4.90;;
5559;SDS011;2803;47.916;8.074;2023-06-26T04:06:51;7.80;;;5.50;;
5559;SDS011;2803;47.916;8.074;2023-06-26T04:09:18;8.17;;;6.07;;
5559;SDS011;2803;47.916;8.074;2023-06-26T04:11:45;8.20;;;5.87;;
5559;SDS011;2803;47.916;8.074;2023-06-26T04:14:11;8.20;;;4.90;;
5559;SDS011;2803;47.916;8.074;2023-06-26T04:16:39;8.17;;;5.90;;
5559;SDS011;2803;47.916;8.074;2023-06-26T04:19:06;8.23;;;5.43;;
5559;SDS011;2803;47.916;8.074;2023-06-26T04:21:33;10.80;;;6.30;;
5559;SDS011;2803;47.916;8.074;2023-06-26T04:23:59;8.33;;;5.73;;
5559;SDS011;2803;47.916;8.074;2023-06-26T04:26:26;8.43;;;5.60;;
5559;SDS011;2803;47.916;8.074;2023-06-26T04:28:52;7.27;;;5.00;;
5559;SDS011;2803;47.916;8.074;2023-06-26T04:31:19;8.43;;;5.50;;
5559;SDS011;2803;47.916;8.074;2023-06-26T04:33:48;7.63;;;5.63;;
5559;SDS011;2803;47.916;8.074;2023-06-26T04:36:16;7.43;;;4.73;;
5559;SDS011;2803;47.916;8.074;2023-06-26T04:38:43;9.47;;;5.20;;
5559;SDS011;2803;47.916;8.074;2023-06-26T04:41:10;7.70;;;4.70;;
5559;SDS011;2803;47.916;8.074;2023-06-26T04:43:36;6.87;;;5.37;;
5559;SDS011;2803;47.916;8.074;2023-06-26T04:46:03;11.63;;;5.40;;
5559;SDS011;2803;47.916;8.074;2023-06-26T04:48:29;14.73;;;5.30;;
5559;SDS011;2803;47.916;8.074;2023-06-26T04:50:57;8.60;;;5.77;;
5559;SDS011;2803;47.916;8.074;2023-06-26T04:53:24;7.80;;;5.07;;
5559;SDS011;2803;47.916;8.074;2023-06-26T04:55:52;8.40;;;5.50;;
5559;SDS011;2803;47.916;8.074;2023-06-26T04:58:19;6.87;;;5.17;;
5559;SDS011;2803;47.916;8.074;2023-06-26T05:00:46;9.30;;;5.90;;
5559;SDS011;2803;47.916;8.074;2023-06-26T05:03:13;11.43;;;5.77;;
5559;SDS011;2803;47.916;8.074;2023-06-26T05:05:43;6.20;;;4.70;;
5559;SDS011;2803;47.916;8.074;2023-06-26T05:08:14;7.53;;;4.90;;
5559;SDS011;2803;47.916;8.074;2023-06-26T05:10:43;10.17;;;5.33;;
5559;SDS011;2803;47.916;8.074;2023-06-26T05:13:10;6.30;;;5.00;;
5559;SDS011;2803;47.916;8.074;2023-06-26T05:15:39;7.27;;;5.67;;
5559;SDS011;2803;47.916;8.074;2023-06-26T05:18:06;10.73;;;6.30;;
5559;SDS011;2803;47.916;8.074;2023-06-26T05:20:33;8.73;;;5.77;;
5559;SDS011;2803;47.916;8.074;2023-06-26T05:23:00;8.80;;;5.10;;
5559;SDS011;2803;47.916;8.074;2023-06-26T05:25:29;7.37;;;4.97;;
5559;SDS011;2803;47.916;8.074;2023-06-26T05:27:57;7.40;;;4.87;;
5559;SDS011;2803;47.916;8.074;2023-06-26T05:30:24;8.63;;;5.37;;
5559;SDS011;2803;47.916;8.074;2023-06-26T05:32:52;10.23;;;5.73;;
5559;SDS011;2803;47.916;8.074;2023-06-26T05:35:20;7.57;;;5.57;;
5559;SDS011;2803;47.916;8.074;2023-06-26T05:37:48;10.40;;;5.40;;
5559;SDS011;2803;47.916;8.074;2023-06-26T05:40:16;12.13;;;5.50;;
5559;SDS011;2803;47.916;8.074;2023-06-26T05:42:45;9.10;;;5.13;;
5559;SDS011;2803;47.916;8.074;2023-06-26T05:45:12;9.33;;;5.80;;
5559;SDS011;2803;47.916;8.074;2023-06-26T05:47:39;10.70;;;5.70;;
5559;SDS011;2803;47.916;8.074;2023-06-26T05:50:07;9.23;;;5.60;;
5559;SDS011;2803;47.916;8.074;2023-06-26T05:52:34;8.47;;;5.40;;
5559;SDS011;2803;47.916;8.074;2023-06-26T05:55:04;6.10;;;4.97;;
5559;SDS011;2803;47.916;8.074;2023-06-26T05:57:32;7.33;;;5.23;;
5559;SDS011;2803;47.916;8.074;2023-06-26T06:00:02;17.80;;;6.30;;
5559;SDS011;2803;47.916;8.074;2023-06-26T06:02:33;7.47;;;4.97;;
5559;SDS011;2803;47.916;8.074;2023-06-26T06:05:01;8.40;;;5.20;;
5559;SDS011;2803;47.916;8.074;2023-06-26T06:07:27;9.27;;;5.93;;
5559;SDS011;2803;47.916;8.074;2023-06-26T06:09:55;10.73;;;5.70;;
5559;SDS011;2803;47.916;8.074;2023-06-26T06:12:22;9.57;;;5.57;;
5559;SDS011;2803;47.916;8.074;2023-06-26T06:14:48;8.67;;;5.53;;
5559;SDS011;2803;47.916;8.074;2023-06-26T06:17:16;8.20;;;6.07;;
5559;SDS011;2803;47.916;8.074;2023-06-26T06:19:43;7.80;;;5.03;;
5559;SDS011;2803;47.916;8.074;2023-06-26T06:22:10;8.10;;;5.80;;
5559;SDS011;2803;47.916;8.074;2023-06-26T06:24:37;9.67;;;5.40;;
5559;SDS011;2803;47.916;8.074;2023-06-26T06:27:04;13.57;;;5.63;;
5559;SDS011;2803;47.916;8.074;2023-06-26T06:29:30;9.60;;;5.40;;
5559;SDS011;2803;47.916;8.074;2023-06-26T06:31:57;9.40;;;5.93;;
5559;SDS011;2803;47.916;8.074;2023-06-26T06:34:25;8.53;;;5.70;;
5559;SDS011;2803;47.916;8.074;2023-06-26T06:36:52;7.87;;;5.00;;
5559;SDS011;2803;47.916;8.074;2023-06-26T06:39:18;7.90;;;5.47;;
5559;SDS011;2803;47.916;8.074;2023-06-26T06:41:45;6.60;;;5.73;;
5559;SDS011;2803;47.916;8.074;2023-06-26T06:44:12;8.97;;;5.20;;
5559;SDS011;2803;47.916;8.074;2023-06-26T06:46:39;14.93;;;5.87;;
5559;SDS011;2803;47.916;8.074;2023-06-26T06:49:08;8.30;;;5.80;;
5559;SDS011;2803;47.916;8.074;2023-06-26T06:51:36;8.00;;;5.30;;
5559;SDS011;2803;47.916;8.074;2023-06-26T06:54:04;7.50;;;5.70;;
5559;SDS011;2803;47.916;8.074;2023-06-26T06:56:30;10.33;;;5.40;;
5559;SDS011;2803;47.916;8.074;2023-06-26T06:58:57;10.40;;;6.03;;
5559;SDS011;2803;47.916;8.074;2023-06-26T07:01:25;8.80;;;6.17;;
5559;SDS011;2803;47.916;8.074;2023-06-26T07:03:52;7.73;;;5.80;;
5559;SDS011;2803;47.916;8.074;2023-06-26T07:06:19;11.10;;;6.63;;
5559;SDS011;2803;47.916;8.074;2023-06-26T07:08:47;7.70;;;5.67;;
5559;SDS011;2803;47.916;8.074;2023-06-26T07:11:14;7.97;;;5.90;;
5559;SDS011;2803;47.916;8.074;2023-06-26T07:13:42;8.40;;;5.93;;
5559;SDS011;2803;47.916;8.074;2023-06-26T07:16:10;9.60;;;6.07;;
5559;SDS011;2803;47.916;8.074;2023-06-26T07:18:37;7.20;;;5.83;;
5559;SDS011;2803;47.916;8.074;2023-06-26T07:21:04;7.10;;;5.50;;
5559;SDS011;2803;47.916;8.074;2023-06-26T07:23:32;8.40;;;6.10;;
5559;SDS011;2803;47.916;8.074;2023-06-26T07:26:00;8.03;;;5.40;;
5559;SDS011;2803;47.916;8.074;2023-06-26T07:28:27;8.47;;;5.57;;
5559;SDS011;2803;47.916;8.074;2023-06-26T07:30:54;9.93;;;6.03;;
5559;SDS011;2803;47.916;8.074;2023-06-26T07:33:21;7.43;;;5.70;;
5559;SDS011;2803;47.916;8.074;2023-06-26T07:35:47;7.73;;;5.87;;
5559;SDS011;2803;47.916;8.074;2023-06-26T07:38:14;8.63;;;5.90;;
5559;SDS011;2803;47.916;8.074;2023-06-26T07:40:41;9.20;;;6.07;;
5559;SDS011;2803;47.916;8.074;2023-06-26T07:43:09;9.30;;;5.00;;
5559;SDS011;2803;47.916;8.074;2023-06-26T07:45:36;10.63;;;5.57;;
5559;SDS011;2803;47.916;8.074;2023-06-26T07:48:02;7.93;;;5.30;;
5559;SDS011;2803;47.916;8.074;2023-06-26T07:50:29;6.50;;;5.47;;
5559;SDS011;2803;47.916;8.074;2023-06-26T07:52:55;6.80;;;5.37;;
5559;SDS011;2803;47.916;8.074;2023-06-26T07:55:22;6.83;;;5.50;;
5559;SDS011;2803;47.916;8.074;2023-06-26T07:57:51;7.33;;;5.70;;
5559;SDS011;2803;47.916;8.074;2023-06-26T08:00:19;7.93;;;5.13;;
5559;SDS011;2803;47.916;8.074;2023-06-26T08:02:45;16.00;;;5.73;;
5559;SDS011;2803;47.916;8.074;2023-06-26T08:05:12;7.33;;;4.87;;
5559;SDS011;2803;47.916;8.074;2023-06-26T08:07:39;6.40;;;5.30;;
5559;SDS011;2803;47.916;8.074;2023-06-26T08:10:06;6.37;;;4.70;;
5559;SDS011;2803;47.916;8.074;2023-06-26T08:12:33;7.57;;;4.40;;
5559;SDS011;2803;47.916;8.074;2023-06-26T08:15:01;6.40;;;5.20;;
5559;SDS011;2803;47.916;8.074;2023-06-26T08:17:31;10.30;;;5.40;;
5559;SDS011;2803;47.916;8.074;2023-06-26T08:19:57;7.30;;;5.17;;
5559;SDS011;2803;47.916;8.074;2023-06-26T08:22:24;6.50;;;5.23;;
5559;SDS011;2803;47.916;8.074;2023-06-26T08:24:50;11.07;;;6.37;;
5559;SDS011;2803;47.916;8.074;2023-06-26T08:27:17;9.23;;;5.67;;
5559;SDS011;2803;47.916;8.074;2023-06-26T08:29:44;9.57;;;5.90;;
5559;SDS011;2803;47.916;8.074;2023-06-26T08:32:10;12.63;;;5.40;;
5559;SDS011;2803;47.916;8.074;2023-06-26T08:34:38;10.50;;;6.33;;
5559;SDS011;2803;47.916;8.074;2023-06-26T08:37:05;5.77;;;4.90;;
5559;SDS011;2803;47.916;8.074;2023-06-26T08:39:34;11.50;;;5.87;;
5559;SDS011;2803;47.916;8.074;2023-06-26T08:42:00;7.30;;;5.27;;
5559;SDS011;2803;47.916;8.074;2023-06-26T08:44:27;7.30;;;5.80;;
5559;SDS011;2803;47.916;8.074;2023-06-26T08:46:54;18.63;;;5.60;;
5559;SDS011;2803;47.916;8.074;2023-06-26T08:49:21;10.37;;;6.03;;
5559;SDS011;2803;47.916;8.074;2023-06-26T08:51:58;7.60;;;5.10;;
5559;SDS011;2803;47.916;8.074;2023-06-26T08:54:40;8.73;;;5.27;;
5559;SDS011;2803;47.916;8.074;2023-06-26T08:57:12;8.97;;;6.90;;
5559;SDS011;2803;47.916;8.074;2023-06-26T08:59:41;8.20;;;6.03;;
5559;SDS011;2803;47.916;8.074;2023-06-26T09:02:08;8.63;;;6.63;;
5559;SDS011;2803;47.916;8.074;2023-06-26T09:04:36;7.67;;;5.17;;
5559;SDS011;2803;47.916;8.074;2023-06-26T09:07:04;9.63;;;6.10;;
5559;SDS011;2803;47.916;8.074;2023-06-26T09:09:31;6.20;;;5.50;;
5559;SDS011;2803;47.916;8.074;2023-06-26T09:11:57;7.97;;;5.90;;
5559;SDS011;2803;47.916;8.074;2023-06-26T09:14:24;7.30;;;6.07;;
5559;SDS011;2803;47.916;8.074;2023-06-26T09:16:51;14.73;;;5.90;;
5559;SDS011;2803;47.916;8.074;2023-06-26T09:19:17;9.90;;;6.50;;
5559;SDS011;2803;47.916;8.074;2023-06-26T09:21:44;7.40;;;5.90;;
5559;SDS011;2803;47.916;8.074;2023-06-26T09:24:12;6.80;;;5.30;;
5559;SDS011;2803;47.916;8.074;2023-06-26T09:26:40;6.37;;;5.20;;
5559;SDS011;2803;47.916;8.074;2023-06-26T09:29:08;6.90;;;5.40;;
5559;SDS011;2803;47.916;8.074;2023-06-26T09:31:35;8.87;;;5.70;;
5559;SDS011;2803;47.916;8.074;2023-06-26T09:34:03;7.07;;;5.47;;
5559;SDS011;2803;47.916;8.074;2023-06-26T09:36:30;7.63;;;5.93;;
5559;SDS011;2803;47.916;8.074;2023-06-26T09:38:58;7.40;;;5.87;;
5559;SDS011;2803;47.916;8.074;2023-06-26T09:41:26;7.50;;;6.10;;
5559;SDS011;2803;47.916;8.074;2023-06-26T09:43:53;13.13;;;5.80;;
5559;SDS011;2803;47.916;8.074;2023-06-26T09:46:24;8.30;;;6.10;;
5559;SDS011;2803;47.916;8.074;2023-06-26T09:48:57;8.03;;;6.47;;
5559;SDS011;2803;47.916;8.074;2023-06-26T09:51:24;10.70;;;6.17;;
5559;SDS011;2803;47.916;8.074;2023-06-26T09:53:51;10.47;;;6.90;;
5559;SDS011;2803;47.916;8.074;2023-06-26T09:56:18;9.07;;;6.30;;
5559;SDS011;2803;47.916;8.074;2023-06-26T09:58:48;8.73;;;6.50;;
5559;SDS011;2803;47.916;8.074;2023-06-26T10:01:15;11.57;;;6.60;;
5559;SDS011;2803;47.916;8.074;2023-06-26T10:03:44;8.43;;;6.70;;
5559;SDS011;2803;47.916;8.074;2023-06-26T10:06:11;9.43;;;7.00;;
5559;SDS011;2803;47.916;8.074;2023-06-26T10:08:39;10.60;;;6.47;;
5559;SDS011;2803;47.916;8.074;2023-06-26T10:11:07;16.63;;;7.47;;
5559;SDS011;2803;47.916;8.074;2023-06-26T10:13:38;9.33;;;7.10;;
5559;SDS011;2803;47.916;8.074;2023-06-26T10:16:08;14.87;;;8.00;;
5559;SDS011;2803;47.916;8.074;2023-06-26T10:18:37;11.33;;;7.27;;
5559;SDS011;2803;47.916;8.074;2023-06-26T10:21:06;12.43;;;7.20;;
5559;SDS011;2803;47.916;8.074;2023-06-26T10:23:34;17.73;;;7.40;;
5559;SDS011;2803;47.916;8.074;2023-06-26T10:26:05;16.47;;;8.37;;
5559;SDS011;2803;47.916;8.074;2023-06-26T10:28:34;11.97;;;7.80;;
5559;SDS011;2803;47.916;8.074;2023-06-26T10:31:02;15.53;;;7.60;;
5559;SDS011;2803;47.916;8.074;2023-06-26T10:33:33;13.57;;;7.90;;
5559;SDS011;2803;47.916;8.074;2023-06-26T10:38:51;14.63;;;7.63;;
5559;SDS011;2803;47.916;8.074;2023-06-26T10:41:20;12.47;;;7.90;;
5559;SDS011;2803;47.916;8.074;2023-06-26T10:43:49;14.77;;;8.10;;
5559;SDS011;2803;47.916;8.074;2023-06-26T10:46:17;12.87;;;7.67;;
5559;SDS011;2803;47.916;8.074;2023-06-26T10:51:29;17.37;;;8.00;;
5559;SDS011;2803;47.916;8.074;2023-06-26T10:53:55;11.23;;;7.23;;
5559;SDS011;2803;47.916;8.074;2023-06-26T10:59:13;15.50;;;7.50;;
5559;SDS011;2803;47.916;8.074;2023-06-26T11:01:41;11.70;;;8.00;;
5559;SDS011;2803;47.916;8.074;2023-06-26T11:04:10;16.60;;;7.63;;
5559;SDS011;2803;47.916;8.074;2023-06-26T11:06:39;10.27;;;7.13;;
5559;SDS011;2803;47.916;8.074;2023-06-26T11:09:06;9.20;;;7.20;;
5559;SDS011;2803;47.916;8.074;2023-06-26T11:14:27;12.13;;;7.73;;
5559;SDS011;2803;47.916;8.074;2023-06-26T11:16:55;11.70;;;7.67;;
5559;SDS011;2803;47.916;8.074;2023-06-26T11:19:24;12.30;;;8.63;;
5559;SDS011;2803;47.916;8.074;2023-06-26T11:21:52;9.87;;;7.30;;
5559;SDS011;2803;47.916;8.074;2023-06-26T11:24:25;11.90;;;7.63;;
5559;SDS011;2803;47.916;8.074;2023-06-26T11:26:52;15.13;;;8.77;;
5559;SDS011;2803;47.916;8.074;2023-06-26T11:29:18;10.27;;;7.67;;
5559;SDS011;2803;47.916;8.074;2023-06-26T11:31:45;15.93;;;7.93;;
5559;SDS011;2803;47.916;8.074;2023-06-26T11:34:12;12.97;;;7.90;;
5559;SDS011;2803;47.916;8.074;2023-06-26T11:36:42;12.47;;;8.20;;
5559;SDS011;2803;47.916;8.074;2023-06-26T11:39:11;14.77;;;7.83;;
5559;SDS011;2803;47.916;8.074;2023-06-26T11:41:38;10.07;;;7.40;;
5559;SDS011;2803;47.916;8.074;2023-06-26T11:44:06;8.73;;;7.13;;
5559;SDS011;2803;47.916;8.074;2023-06-26T11:46:35;10.10;;;7.93;;
5559;SDS011;2803;47.916;8.074;2023-06-26T11:49:02;14.63;;;7.47;;
5559;SDS011;2803;47.916;8.074;2023-06-26T11:51:29;17.40;;;7.23;;
5559;SDS011;2803;47.916;8.074;2023-06-26T11:54:00;9.60;;;7.97;;
5559;SDS011;2803;47.916;8.074;2023-06-26T11:56:27;12.30;;;8.20;;
5559;SDS011;2803;47.916;8.074;2023-06-26T11:58:54;14.13;;;8.40;;
5559;SDS011;2803;47.916;8.074;2023-06-26T12:01:21;20.87;;;9.30;;
5559;SDS011;2803;47.916;8.074;2023-06-26T12:03:48;23.57;;;8.67;;
5559;SDS011;2803;47.916;8.074;2023-06-26T12:06:16;11.90;;;9.07;;
5559;SDS011;2803;47.916;8.074;2023-06-26T12:08:43;15.80;;;8.60;;
5559;SDS011;2803;47.916;8.074;2023-06-26T12:11:12;10.80;;;8.73;;
5559;SDS011;2803;47.916;8.074;2023-06-26T12:13:39;12.90;;;8.30;;
5559;SDS011;2803;47.916;8.074;2023-06-26T12:16:05;11.90;;;8.67;;
5559;SDS011;2803;47.916;8.074;2023-06-26T12:18:33;16.57;;;7.60;;
5559;SDS011;2803;47.916;8.074;2023-06-26T12:21:00;11.37;;;8.27;;
5559;SDS011;2803;47.916;8.074;2023-06-26T12:23:31;12.90;;;8.50;;
5559;SDS011;2803;47.916;8.074;2023-06-26T12:25:58;14.47;;;8.27;;
5559;SDS011;2803;47.916;8.074;2023-06-26T12:28:26;9.73;;;7.83;;
5559;SDS011;2803;47.916;8.074;2023-06-26T12:33:42;11.53;;;7.60;;
5559;SDS011;2803;47.916;8.074;2023-06-26T12:36:10;9.33;;;7.63;;
5559;SDS011;2803;47.916;8.074;2023-06-26T12:38:37;14.90;;;9.00;;
5559;SDS011;2803;47.916;8.074;2023-06-26T12:41:04;16.20;;;8.93;;
5559;SDS011;2803;47.916;8.074;2023-06-26T12:43:32;11.10;;;7.80;;
5559;SDS011;2803;47.916;8.074;2023-06-26T12:46:04;10.87;;;7.83;;
5559;SDS011;2803;47.916;8.074;2023-06-26T12:48:37;11.90;;;7.60;;
5559;SDS011;2803;47.916;8.074;2023-06-26T12:51:08;10.67;;;7.33;;
5559;SDS011;2803;47.916;8.074;2023-06-26T12:53:36;13.70;;;7.10;;
5559;SDS011;2803;47.916;8.074;2023-06-26T12:56:04;10.40;;;7.07;;
5559;SDS011;2803;47.916;8.074;2023-06-26T12:58:33;10.73;;;6.87;;
5559;SDS011;2803;47.916;8.074;2023-06-26T13:01:02;13.93;;;7.07;;
5559;SDS011;2803;47.916;8.074;2023-06-26T13:03:29;9.40;;;6.90;;
5559;SDS011;2803;47.916;8.074;2023-06-26T13:05:56;11.63;;;7.43;;
5559;SDS011;2803;47.916;8.074;2023-06-26T13:08:24;10.93;;;7.00;;
5559;SDS011;2803;47.916;8.074;2023-06-26T13:10:50;15.30;;;7.53;;
5559;SDS011;2803;47.916;8.074;2023-06-26T13:13:17;11.83;;;8.37;;
5559;SDS011;2803;47.916;8.074;2023-06-26T13:15:45;12.67;;;7.17;;
5559;SDS011;2803;47.916;8.074;2023-06-26T13:18:12;13.50;;;8.07;;
5559;SDS011;2803;47.916;8.074;2023-06-26T13:20:40;11.63;;;7.20;;
5559;SDS011;2803;47.916;8.074;2023-06-26T13:23:08;11.30;;;6.83;;
5559;SDS011;2803;47.916;8.074;2023-06-26T13:25:34;9.50;;;7.00;;
5559;SDS011;2803;47.916;8.074;2023-06-26T13:28:01;14.10;;;7.03;;
5559;SDS011;2803;47.916;8.074;2023-06-26T13:30:28;12.23;;;6.90;;
5559;SDS011;2803;47.916;8.074;2023-06-26T13:32:57;27.97;;;8.00;;
5559;SDS011;2803;47.916;8.074;2023-06-26T13:35:24;7.97;;;6.40;;
5559;SDS011;2803;47.916;8.074;2023-06-26T13:37:50;9.13;;;6.30;;
5559;SDS011;2803;47.916;8.074;2023-06-26T13:40:17;10.40;;;6.73;;
5559;SDS011;2803;47.916;8.074;2023-06-26T13:42:43;10.63;;;6.40;;
5559;SDS011;2803;47.916;8.074;2023-06-26T13:45:10;10.80;;;6.40;;
5559;SDS011;2803;47.916;8.074;2023-06-26T13:47:37;18.10;;;7.00;;
5559;SDS011;2803;47.916;8.074;2023-06-26T13:50:07;8.17;;;6.40;;
5559;SDS011;2803;47.916;8.074;2023-06-26T13:52:35;6.57;;;5.63;;
5559;SDS011;2803;47.916;8.074;2023-06-26T13:55:02;10.57;;;6.20;;
5559;SDS011;2803;47.916;8.074;2023-06-26T13:57:30;8.47;;;6.27;;
5559;SDS011;2803;47.916;8.074;2023-06-26T13:59:56;9.40;;;6.50;;
5559;SDS011;2803;47.916;8.074;2023-06-26T14:02:23;13.87;;;6.80;;
5559;SDS011;2803;47.916;8.074;2023-06-26T14:04:51;12.00;;;6.20;;
5559;SDS011;2803;47.916;8.074;2023-06-26T14:07:19;9.07;;;6.50;;
5559;SDS011;2803;47.916;8.074;2023-06-26T14:09:46;9.90;;;5.60;;
5559;SDS011;2803;47.916;8.074;2023-06-26T14:12:12;12.47;;;6.00;;
5559;SDS011;2803;47.916;8.074;2023-06-26T14:14:39;9.80;;;6.13;;
5559;SDS011;2803;47.916;8.074;2023-06-26T14:17:05;10.23;;;5.87;;
5559;SDS011;2803;47.916;8.074;2023-06-26T14:19:34;10.40;;;6.00;;
5559;SDS011;2803;47.916;8.074;2023-06-26T14:22:00;8.73;;;6.13;;
5559;SDS011;2803;47.916;8.074;2023-06-26T14:24:28;10.37;;;5.70;;
5559;SDS011;2803;47.916;8.074;2023-06-26T14:26:55;9.13;;;6.10;;
5559;SDS011;2803;47.916;8.074;2023-06-26T14:29:21;9.30;;;5.50;;
5559;SDS011;2803;47.916;8.074;2023-06-26T14:31:48;7.70;;;6.20;;
5559;SDS011;2803;47.916;8.074;2023-06-26T14:34:15;12.50;;;5.23;;
5559;SDS011;2803;47.916;8.074;2023-06-26T14:36:41;9.97;;;5.53;;
5559;SDS011;2803;47.916;8.074;2023-06-26T14:39:08;7.47;;;5.57;;
5559;SDS011;2803;47.916;8.074;2023-06-26T14:41:36;10.40;;;5.53;;
5559;SDS011;2803;47.916;8.074;2023-06-26T14:44:03;11.90;;;5.37;;
5559;SDS011;2803;47.916;8.074;2023-06-26T14:46:33;11.33;;;4.70;;
5559;SDS011;2803;47.916;8.074;2023-06-26T14:48:59;7.27;;;5.47;;
5559;SDS011;2803;47.916;8.074;2023-06-26T14:51:26;9.77;;;5.50;;
5559;SDS011;2803;47.916;8.074;2023-06-26T14:53:52;10.20;;;5.50;;
5559;SDS011;2803;47.916;8.074;2023-06-26T14:56:19;8.53;;;5.00;;
5559;SDS011;2803;47.916;8.074;2023-06-26T14:58:48;8.93;;;5.50;;
5559;SDS011;2803;47.916;8.074;2023-06-26T15:01:16;7.63;;;5.47;;
5559;SDS011;2803;47.916;8.074;2023-06-26T15:03:44;9.50;;;5.67;;
5559;SDS011;2803;47.916;8.074;2023-06-26T15:06:11;10.80;;;4.90;;
5559;SDS011;2803;47.916;8.074;2023-06-26T15:08:37;9.00;;;4.90;;
5559;SDS011;2803;47.916;8.074;2023-06-26T15:11:04;13.00;;;4.63;;
5559;SDS011;2803;47.916;8.074;2023-06-26T15:13:31;6.90;;;4.67;;
5559;SDS011;2803;47.916;8.074;2023-06-26T15:15:59;7.57;;;4.53;;
5559;SDS011;2803;47.916;8.074;2023-06-26T15:18:25;5.70;;;3.80;;
5559;SDS011;2803;47.916;8.074;2023-06-26T15:20:52;9.00;;;4.47;;
5559;SDS011;2803;47.916;8.074;2023-06-26T15:23:19;7.87;;;4.13;;
5559;SDS011;2803;47.916;8.074;2023-06-26T15:25:45;4.00;;;3.43;;